Time;durP1;ratioP1;P1;durP2;ratioP2;P2;SDS_P1;SDS_P2;PMS_P1;PMS_P2;Temp;Humidity;BMP_temperature;BMP_pressure;BME280_temperature;BME280_humidity;BME280_pressure;Samples;Min_cycle;Max_cycle;Signal;HPM_P1;HPM_P2
2023/07/31 00:00:32;;;;;;;;;;;16.30;54.50;;;12.13;100.00;95695.97;4990704;28;19909;-49
2023/07/31 00:02:58;;;;;;;;;;;16.30;54.60;;;12.09;100.00;95694.88;4991885;28;20268;-50
2023/07/31 00:05:24;;;;;;;;;;;16.30;54.70;;;12.11;100.00;95692.75;4991830;28;20213;-52
2023/07/31 00:07:50;;;;;;;;;;;16.20;54.70;;;12.11;100.00;95692.75;4990678;28;19913;-51
2023/07/31 00:10:15;;;;;;;;;;;16.20;54.80;;;12.11;100.00;95682.06;4991474;28;19963;-49
2023/07/31 00:12:44;;;;;;;;;;;16.20;54.90;;;12.10;100.00;95689.28;4990944;28;19910;-52
2023/07/31 00:15:10;;;;;;;;;;;16.20;55.00;;;12.07;100.00;95683.69;4991982;28;19932;-53
2023/07/31 00:17:37;;;;;;;;;;;16.20;55.00;;;12.09;100.00;95694.88;4991406;28;20395;-51
2023/07/31 00:20:03;;;;;;;;;;;16.20;55.10;;;12.16;100.00;95690.88;4992005;28;20380;-51
2023/07/31 00:22:29;;;;;;;;;;;16.20;55.30;;;12.21;100.00;95690.84;4991846;28;19910;-52
2023/07/31 00:24:57;;;;;;;;;;;16.20;55.40;;;12.24;100.00;95689.50;4981113;28;19967;-46
2023/07/31 00:27:23;;;;;;;;;;;16.30;55.50;;;12.22;100.00;95692.47;4972356;28;20017;-47
2023/07/31 00:29:48;;;;;;;;;;;16.30;55.40;;;12.23;100.00;95704.72;4983439;28;20004;-53
2023/07/31 00:32:14;;;;;;;;;;;16.30;55.40;;;12.26;100.00;95706.88;4980389;28;19917;-53
2023/07/31 00:34:40;;;;;;;;;;;16.30;55.50;;;12.27;100.00;95700.44;4985191;28;19917;-53
2023/07/31 00:37:06;;;;;;;;;;;16.40;55.60;;;12.31;100.00;95694.56;4982178;28;19921;-52
2023/07/31 00:39:34;;;;;;;;;;;16.40;55.60;;;12.32;100.00;95696.19;4991556;28;19945;-50
2023/07/31 00:42:00;;;;;;;;;;;16.40;55.60;;;12.32;100.00;95688.94;4990343;28;19918;-51
2023/07/31 00:44:26;;;;;;;;;;;16.40;55.60;;;12.31;100.00;95695.34;4991681;28;19910;-51
2023/07/31 00:46:53;;;;;;;;;;;16.40;55.70;;;12.30;100.00;95687.63;4991797;28;19910;-52
2023/07/31 00:49:20;;;;;;;;;;;16.50;55.70;;;12.33;100.00;95689.75;4985449;28;19956;-53
2023/07/31 00:51:46;;;;;;;;;;;16.50;55.80;;;12.29;100.00;95684.16;4995096;28;19916;-53
2023/07/31 00:54:12;;;;;;;;;;;16.40;55.80;;;12.30;100.00;95676.94;4992028;28;20318;-50
2023/07/31 00:56:39;;;;;;;;;;;16.40;55.80;;;12.29;100.00;95678.81;4995251;28;20011;-51
2023/07/31 00:59:05;;;;;;;;;;;16.40;55.90;;;12.36;100.00;95683.88;4995351;28;19917;-51
2023/07/31 01:01:30;;;;;;;;;;;16.50;56.00;;;12.34;100.00;95684.13;4993579;28;20319;-51
2023/07/31 01:03:56;;;;;;;;;;;16.40;56.00;;;12.31;100.00;95684.66;4994698;28;19910;-49
2023/07/31 01:06:49;;;;;;;;;;;16.40;56.00;;;12.25;100.00;95683.91;4993665;28;19931;-54
2023/07/31 01:09:44;;;;;;;;;;;16.40;56.00;;;12.21;100.00;95690.03;4983491;28;19909;-51
2023/07/31 01:12:16;;;;;;;;;;;16.40;56.00;;;12.13;100.00;95686.06;4993268;28;19937;-52
2023/07/31 01:15:11;;;;;;;;;;;16.30;56.10;;;12.09;100.00;95682.31;4994870;28;19909;-52
2023/07/31 01:17:41;;;;;;;;;;;16.20;56.10;;;12.04;100.00;95674.34;4994218;28;19913;-52
2023/07/31 01:20:17;;;;;;;;;;;16.20;56.10;;;11.99;100.00;95674.34;4993689;28;20483;-51
2023/07/31 01:22:54;;;;;;;;;;;16.20;56.30;;;11.95;100.00;95670.63;4990432;28;19913;-51
2023/07/31 01:26:04;;;;;;;;;;;16.10;56.30;;;11.89;100.00;95667.16;4988703;28;19909;-52
2023/07/31 01:29:07;;;;;;;;;;;16.10;56.40;;;11.84;100.00;95669.00;4975118;28;19928;-51
2023/07/31 01:31:33;;;;;;;;;;;16.00;56.50;;;11.77;100.00;95667.41;4975253;28;19920;-51
2023/07/31 01:34:01;;;;;;;;;;;15.90;56.50;;;11.74;100.00;95662.63;4968163;28;19948;-50
2023/07/31 01:36:30;;;;;;;;;;;15.90;56.60;;;11.71;100.00;95665.03;4980717;28;20375;-51
2023/07/31 01:39:03;;;;;;;;;;;15.90;56.80;;;11.67;100.00;95663.97;4979831;28;19914;-49
2023/07/31 01:41:29;;;;;;;;;;;15.90;56.90;;;11.64;100.00;95659.19;4983521;28;20016;-52
2023/07/31 01:43:55;;;;;;;;;;;15.80;56.90;;;11.61;100.00;95657.84;4980042;28;20012;-52
2023/07/31 01:46:21;;;;;;;;;;;15.80;56.90;;;11.58;100.00;95659.19;4985007;28;19910;-48
2023/07/31 01:48:46;;;;;;;;;;;15.80;56.90;;;11.57;100.00;95652.25;4981453;28;19910;-51
2023/07/31 01:51:12;;;;;;;;;;;15.70;57.00;;;11.55;100.00;95654.38;4994421;28;19913;-52
2023/07/31 01:53:39;;;;;;;;;;;15.80;57.10;;;11.52;100.00;95651.44;4993663;28;19909;-54
2023/07/31 01:56:04;;;;;;;;;;;15.70;57.10;;;11.50;100.00;95640.25;4992764;28;19917;-53
2023/07/31 01:58:30;;;;;;;;;;;15.70;57.10;;;11.49;100.00;95638.66;4993750;28;19924;-49
2023/07/31 02:00:56;;;;;;;;;;;15.70;57.20;;;11.47;100.00;95630.94;5007674;28;19909;-50
2023/07/31 02:03:22;;;;;;;;;;;15.70;57.30;;;11.45;100.00;95630.38;4992635;28;19917;-51
2023/07/31 02:05:49;;;;;;;;;;;15.60;57.30;;;11.43;100.00;95632.50;4993100;28;19909;-50
2023/07/31 02:08:16;;;;;;;;;;;15.60;57.40;;;11.41;100.00;95628.53;4993030;28;19913;-45
2023/07/31 02:10:42;;;;;;;;;;;15.60;57.40;;;11.39;100.00;95628.78;4993851;28;19909;-50
2023/07/31 02:13:08;;;;;;;;;;;15.60;57.50;;;11.36;100.00;95629.31;4992571;28;19909;-45
2023/07/31 02:15:35;;;;;;;;;;;15.50;57.50;;;11.34;100.00;95629.63;4989116;28;19917;-44
2023/07/31 02:18:01;;;;;;;;;;;15.50;57.60;;;11.33;100.00;95619.19;4975180;28;19926;-45
2023/07/31 02:20:26;;;;;;;;;;;15.50;57.60;;;11.35;100.00;95625.06;4984959;28;19984;-50
2023/07/31 02:22:52;;;;;;;;;;;15.50;57.70;;;11.33;100.00;95613.88;4990400;28;19909;-51
2023/07/31 02:25:18;;;;;;;;;;;15.50;57.70;;;11.30;100.00;95606.41;4989039;28;19909;-50
2023/07/31 02:27:43;;;;;;;;;;;15.50;57.80;;;11.30;100.00;95609.06;4993703;28;19917;-47
2023/07/31 02:30:10;;;;;;;;;;;15.50;57.80;;;11.28;100.00;95600.53;4991063;28;19909;-47
2023/07/31 02:32:36;;;;;;;;;;;15.50;57.90;;;11.29;100.00;95597.59;4993148;28;19937;-48
2023/07/31 02:35:02;;;;;;;;;;;15.50;58.00;;;11.31;100.00;95608.81;4976663;28;19967;-48
2023/07/31 02:37:28;;;;;;;;;;;15.50;58.00;;;11.29;100.00;95612.81;4987036;28;19920;-48
2023/07/31 02:39:55;;;;;;;;;;;15.50;58.10;;;11.26;100.00;95614.13;4980036;28;19979;-47
2023/07/31 02:42:20;;;;;;;;;;;15.40;58.00;;;11.27;100.00;95609.59;4992311;28;20016;-50
2023/07/31 02:44:46;;;;;;;;;;;15.40;58.10;;;11.25;100.00;95606.38;4976592;28;20032;-49
2023/07/31 02:47:12;;;;;;;;;;;15.40;58.10;;;11.26;100.00;95611.47;4973951;28;19910;-49
2023/07/31 02:49:38;;;;;;;;;;;15.40;58.20;;;11.25;100.00;95611.72;4988420;28;19917;-46
2023/07/31 02:52:04;;;;;;;;;;;15.40;58.20;;;11.19;100.00;95613.63;4992691;28;19909;-46
2023/07/31 02:54:29;;;;;;;;;;;15.30;58.20;;;11.20;100.00;95611.75;4982247;28;19916;-47
2023/07/31 02:56:55;;;;;;;;;;;15.40;58.30;;;11.20;100.00;95617.06;4983047;28;19913;-46
2023/07/31 02:59:21;;;;;;;;;;;15.40;58.30;;;11.18;100.00;95614.66;4973436;28;19910;-47
2023/07/31 03:01:47;;;;;;;;;;;15.30;58.30;;;11.18;100.00;95611.19;4989446;28;19913;-53
2023/07/31 03:04:12;;;;;;;;;;;15.40;58.50;;;11.18;100.00;95614.66;4992754;28;20369;-51
2023/07/31 03:06:38;;;;;;;;;;;15.40;58.50;;;11.21;100.00;95605.34;4990332;28;19910;-49
2023/07/31 03:09:04;;;;;;;;;;;15.40;58.60;;;11.21;100.00;95608.78;4992673;28;19944;-48
2023/07/31 03:11:29;;;;;;;;;;;15.40;58.60;;;11.24;100.00;95607.47;4992587;28;19909;-46
2023/07/31 03:13:55;;;;;;;;;;;15.50;58.70;;;11.27;100.00;95609.59;4988714;28;20431;-48
2023/07/31 03:16:21;;;;;;;;;;;15.50;58.70;;;11.28;100.00;95613.84;4992296;28;19936;-51
2023/07/31 03:18:47;;;;;;;;;;;15.50;58.80;;;11.38;100.00;95618.41;4983887;28;19955;-47
2023/07/31 03:21:14;;;;;;;;;;;15.60;58.80;;;11.44;100.00;95614.63;4992544;28;19910;-49
2023/07/31 03:23:40;;;;;;;;;;;15.60;58.90;;;11.51;100.00;95615.19;4992769;28;19910;-48
2023/07/31 03:26:07;;;;;;;;;;;15.70;58.90;;;11.55;100.00;95613.56;4987409;28;19916;-50
2023/07/31 03:28:33;;;;;;;;;;;15.70;58.90;;;11.61;100.00;95617.03;4984196;28;20000;-49
2023/07/31 03:30:59;;;;;;;;;;;15.70;58.90;;;11.64;100.00;95616.50;4987455;28;19996;-50
2023/07/31 03:33:25;;;;;;;;;;;15.80;58.90;;;11.71;100.00;95617.00;4992562;28;19935;-46
2023/07/31 03:35:52;;;;;;;;;;;15.90;59.00;;;11.76;100.00;95609.78;4978999;28;19909;-47
2023/07/31 03:38:18;;;;;;;;;;;15.90;59.00;;;11.79;100.00;95613.78;4987581;28;19917;-49
2023/07/31 03:40:44;;;;;;;;;;;15.90;59.00;;;11.77;100.00;95602.59;4990824;28;19992;-47
2023/07/31 03:43:10;;;;;;;;;;;15.90;59.00;;;11.83;100.00;95609.50;4981949;28;20430;-46
2023/07/31 03:45:35;;;;;;;;;;;16.00;59.00;;;11.85;100.00;95617.28;5008188;28;19909;-46
2023/07/31 03:48:02;;;;;;;;;;;16.00;59.00;;;11.89;100.00;95618.34;4988928;28;19914;-48
2023/07/31 03:50:27;;;;;;;;;;;16.00;59.00;;;11.92;100.00;95617.78;4973728;28;20005;-47
2023/07/31 03:52:53;;;;;;;;;;;16.10;59.10;;;11.98;100.00;95628.19;4972971;28;20339;-47
2023/07/31 03:55:19;;;;;;;;;;;16.10;59.10;;;12.02;100.00;95629.22;4982673;28;20265;-49
2023/07/31 03:57:45;;;;;;;;;;;16.10;59.10;;;12.03;100.00;95622.84;4980093;28;19957;-50
2023/07/31 04:00:11;;;;;;;;;;;16.20;59.10;;;12.07;100.00;95632.97;4990405;28;20004;-49
2023/07/31 04:02:37;;;;;;;;;;;16.20;59.10;;;12.08;100.00;95635.34;4987201;28;19910;-48
2023/07/31 04:05:03;;;;;;;;;;;16.30;59.10;;;12.09;100.00;95639.59;4990719;28;19964;-49
2023/07/31 04:07:28;;;;;;;;;;;16.30;59.00;;;12.11;100.00;95634.81;4990377;28;20331;-54
2023/07/31 04:09:54;;;;;;;;;;;16.30;59.00;;;12.11;100.00;95636.69;4992174;28;19913;-52
2023/07/31 04:12:20;;;;;;;;;;;16.30;59.00;;;12.15;100.00;95637.72;4990969;28;19916;-49
2023/07/31 04:14:46;;;;;;;;;;;16.40;59.10;;;12.18;100.00;95637.97;4986529;28;19960;-47
2023/07/31 04:17:11;;;;;;;;;;;16.40;59.10;;;12.21;100.00;95640.09;4972819;28;19913;-49
2023/07/31 04:19:37;;;;;;;;;;;16.40;59.00;;;12.24;100.00;95639.56;4987798;28;19918;-50
2023/07/31 04:22:03;;;;;;;;;;;16.40;59.10;;;12.26;100.00;95641.97;4991887;28;20296;-46
2023/07/31 04:24:29;;;;;;;;;;;16.50;59.10;;;12.25;100.00;95643.84;4991457;28;19914;-47
2023/07/31 04:26:56;;;;;;;;;;;16.50;59.10;;;12.31;100.00;95641.94;4979239;28;19963;-47
2023/07/31 04:29:22;;;;;;;;;;;16.50;59.10;;;12.31;100.00;95649.16;4996069;28;19932;-48
2023/07/31 04:31:48;;;;;;;;;;;16.60;59.10;;;12.36;100.00;95639.25;4994548;28;19909;-46
2023/07/31 04:34:14;;;;;;;;;;;16.60;59.10;;;12.41;100.00;95646.44;4995918;28;20300;-48
2023/07/31 04:36:40;;;;;;;;;;;16.70;59.10;;;12.42;100.00;95642.69;4983073;28;19917;-54
2023/07/31 04:39:06;;;;;;;;;;;16.70;59.10;;;12.46;100.00;95647.22;4985863;28;19909;-49
2023/07/31 04:41:31;;;;;;;;;;;16.80;59.10;;;12.51;100.00;95646.41;4995506;28;20733;-48
2023/07/31 04:43:57;;;;;;;;;;;16.80;59.00;;;12.55;100.00;95650.13;4984828;28;19910;-47
2023/07/31 04:46:23;;;;;;;;;;;16.90;59.00;;;12.57;100.00;95649.84;4992311;28;19971;-50
2023/07/31 04:48:48;;;;;;;;;;;17.00;59.00;;;12.59;100.00;95639.66;4991222;28;19910;-52
2023/07/31 04:51:14;;;;;;;;;;;17.00;59.00;;;12.63;100.00;95643.38;4995135;28;19952;-48
2023/07/31 04:53:40;;;;;;;;;;;17.10;59.00;;;12.65;100.00;95646.59;4985750;28;19909;-49
2023/07/31 04:56:06;;;;;;;;;;;17.10;58.90;;;12.71;100.00;95640.94;5009032;28;19909;-48
2023/07/31 04:58:31;;;;;;;;;;;17.20;59.00;;;12.78;100.00;95642.50;4985508;28;19917;-49
2023/07/31 05:00:57;;;;;;;;;;;17.20;58.90;;;12.82;100.00;95636.34;4981606;28;19910;-47
2023/07/31 05:03:23;;;;;;;;;;;17.30;58.90;;;12.85;100.00;95637.63;4984164;28;20287;-47
2023/07/31 05:05:49;;;;;;;;;;;17.30;58.90;;;12.90;100.00;95638.41;4994384;28;19916;-48
2023/07/31 05:08:17;;;;;;;;;;;17.40;58.90;;;12.94;100.00;95631.44;4985089;28;20310;-47
2023/07/31 05:10:43;;;;;;;;;;;17.50;58.80;;;13.00;100.00;95624.16;4994769;28;19913;-47
2023/07/31 05:13:09;;;;;;;;;;;17.50;58.80;;;13.04;100.00;95619.88;4994788;28;19909;-50
2023/07/31 05:15:35;;;;;;;;;;;17.60;58.70;;;13.11;100.00;95628.38;4995012;28;19920;-49
2023/07/31 05:18:00;;;;;;;;;;;17.70;58.70;;;13.19;100.00;95629.66;4993427;28;19924;-52
2023/07/31 05:20:27;;;;;;;;;;;17.80;58.70;;;13.30;100.00;95627.72;4982205;28;19945;-47
2023/07/31 05:22:53;;;;;;;;;;;17.90;58.70;;;13.38;100.00;95629.78;4994936;28;20003;-49
2023/07/31 05:25:19;;;;;;;;;;;18.00;58.60;;;13.49;100.00;95631.31;4990623;28;19917;-50
2023/07/31 05:27:45;;;;;;;;;;;18.20;58.60;;;13.59;100.00;95631.22;4983430;28;19959;-47
2023/07/31 05:30:11;;;;;;;;;;;18.30;59.20;;;13.71;100.00;95633.50;4989933;28;19913;-48
2023/07/31 05:32:36;;;;;;;;;;;18.40;58.50;;;13.81;100.00;95640.63;4984666;28;19910;-46
2023/07/31 05:35:03;;;;;;;;;;;18.50;58.40;;;13.95;100.00;95640.78;4975316;28;19914;-51
2023/07/31 05:37:28;;;;;;;;;;;18.70;58.40;;;14.06;100.00;95644.94;4975015;28;19913;-49
2023/07/31 05:39:54;;;;;;;;;;;18.80;58.30;;;14.16;100.00;95641.34;4974954;28;20268;-49
2023/07/31 05:42:20;;;;;;;;;;;18.90;58.30;;;14.27;100.00;95645.50;4978407;28;19916;-50
2023/07/31 05:44:46;;;;;;;;;;;19.00;58.30;;;14.35;100.00;95648.34;4994809;28;19909;-47
2023/07/31 05:47:12;;;;;;;;;;;19.10;58.20;;;14.41;100.00;95649.06;4994461;28;19910;-52
2023/07/31 05:49:38;;;;;;;;;;;19.20;58.10;;;14.50;100.00;95654.59;4989767;28;19932;-50
2023/07/31 05:52:04;;;;;;;;;;;19.40;58.00;;;14.57;100.00;95653.22;4992380;28;19909;-51
2023/07/31 05:54:32;;;;;;;;;;;19.40;57.80;;;14.65;100.00;95659.00;4992995;28;20376;-46
2023/07/31 05:56:57;;;;;;;;;;;19.50;57.80;;;14.73;100.00;95658.38;4994070;28;19909;-53
2023/07/31 05:59:23;;;;;;;;;;;19.60;57.70;;;14.80;98.63;95648.88;4990019;28;20012;-48
2023/07/31 06:01:49;;;;;;;;;;;19.70;57.60;;;14.87;97.15;95653.06;4988706;28;19920;-45
2023/07/31 06:04:15;;;;;;;;;;;19.70;57.50;;;14.89;94.35;95654.38;4993719;28;19966;-45
2023/07/31 06:06:40;;;;;;;;;;;19.70;57.40;;;14.95;92.92;95655.91;4997734;28;19909;-48
2023/07/31 06:09:06;;;;;;;;;;;19.70;57.30;;;15.03;93.03;95649.09;4988926;28;19910;-47
2023/07/31 06:11:33;;;;;;;;;;;19.80;57.20;;;15.07;93.60;95636.69;4981310;28;19920;-45
2023/07/31 06:13:59;;;;;;;;;;;19.80;57.10;;;15.12;94.96;95641.97;4990606;28;20339;-46
2023/07/31 06:16:26;;;;;;;;;;;19.80;57.10;;;15.14;94.15;95644.38;4974654;28;20028;-47
2023/07/31 06:18:52;;;;;;;;;;;19.90;57.00;;;15.19;94.12;95644.28;4989204;28;19918;-45
2023/07/31 06:21:18;;;;;;;;;;;19.90;56.90;;;15.24;92.85;95634.28;4993191;28;19963;-49
2023/07/31 06:23:44;;;;;;;;;;;20.00;56.90;;;15.20;86.82;95632.47;4989596;28;19914;-48
2023/07/31 06:26:09;;;;;;;;;;;20.10;56.70;;;15.28;88.53;95635.28;4991836;28;19909;-48
2023/07/31 06:28:35;;;;;;;;;;;20.10;56.60;;;15.34;86.17;95633.31;4980737;28;19909;-49
2023/07/31 06:31:01;;;;;;;;;;;20.20;56.50;;;15.43;86.33;95639.59;4975974;28;19917;-45
2023/07/31 06:33:27;;;;;;;;;;;20.20;56.40;;;15.53;86.45;95632.47;4977994;28;19952;-46
2023/07/31 06:35:53;;;;;;;;;;;20.30;56.20;;;15.63;86.44;95632.31;4991701;28;19914;-45
2023/07/31 06:38:25;;;;;;;;;;;20.50;56.20;;;15.74;86.29;95625.69;4992421;28;20353;-47
2023/07/31 06:40:50;;;;;;;;;;;20.60;56.10;;;15.80;85.88;95623.72;4992922;28;20296;-45
2023/07/31 06:43:16;;;;;;;;;;;20.70;56.00;;;15.87;85.54;95632.97;4986945;28;19920;-48
2023/07/31 06:45:42;;;;;;;;;;;20.70;55.90;;;15.94;85.95;95644.13;4979881;28;20004;-50
2023/07/31 06:48:08;;;;;;;;;;;20.80;55.70;;;16.04;86.78;95642.34;4977688;28;21807;-46
2023/07/31 06:50:34;;;;;;;;;;;20.90;55.60;;;16.17;86.43;95647.75;4991827;28;20448;-45
2023/07/31 06:53:00;;;;;;;;;;;21.10;55.50;;;16.37;86.38;95651.91;4973239;28;19913;-45
2023/07/31 06:55:26;;;;;;;;;;;21.30;55.40;;;16.58;84.45;95646.13;4973470;28;19964;-45
2023/07/31 06:57:54;;;;;;;;;;;21.70;55.30;;;16.88;83.96;95628.56;4990861;28;19971;-46
2023/07/31 07:00:22;;;;;;;;;;;22.00;55.10;;;17.20;81.93;95629.44;4991485;28;20004;-48
2023/07/31 07:02:49;;;;;;;;;;;22.50;54.80;;;17.49;79.19;95618.25;4979693;28;20011;-48
2023/07/31 07:05:17;;;;;;;;;;;22.80;54.40;;;17.84;74.75;95608.50;4992666;28;20354;-46
2023/07/31 07:07:43;;;;;;;;;;;23.30;54.20;;;18.17;71.43;95608.16;4985490;28;19917;-50
2023/07/31 07:10:09;;;;;;;;;;;23.70;53.70;;;18.37;70.71;95604.88;4985485;28;19909;-46
2023/07/31 07:12:36;;;;;;;;;;;24.00;53.40;;;18.56;70.16;95617.31;4985886;28;19948;-47
2023/07/31 07:15:02;;;;;;;;;;;24.10;52.90;;;18.66;70.62;95609.69;4985461;28;19932;-46
2023/07/31 07:17:33;;;;;;;;;;;24.20;52.60;;;18.79;68.91;95593.72;4992308;28;19919;-46
2023/07/31 07:20:00;;;;;;;;;;;24.40;52.50;;;18.92;68.40;95598.16;4990893;28;19921;-50
2023/07/31 07:22:27;;;;;;;;;;;24.50;52.20;;;19.15;69.55;95605.00;4992829;28;20279;-46
2023/07/31 07:24:53;;;;;;;;;;;24.60;52.00;;;19.26;64.81;95597.38;4986881;28;19909;-46
2023/07/31 07:27:19;;;;;;;;;;;24.80;51.80;;;19.35;64.34;95600.06;4972867;28;20008;-46
2023/07/31 07:29:46;;;;;;;;;;;24.90;51.40;;;19.47;63.24;95599.41;4985899;28;20008;-46
2023/07/31 07:32:12;;;;;;;;;;;25.10;51.00;;;19.56;63.08;95602.91;4984341;28;19944;-51
2023/07/31 07:34:38;;;;;;;;;;;25.20;50.80;;;19.77;61.37;95597.59;4986622;28;19941;-48
2023/07/31 07:37:05;;;;;;;;;;;25.30;50.60;;;19.92;61.27;95604.41;4991135;28;19965;-46
2023/07/31 07:39:30;;;;;;;;;;;25.50;50.20;;;20.19;60.27;95601.28;4992101;28;19941;-47
2023/07/31 07:41:56;;;;;;;;;;;25.70;49.80;;;20.44;57.84;95604.19;4991103;28;19944;-49
2023/07/31 07:44:22;;;;;;;;;;;26.10;50.00;;;20.69;55.69;95600.56;4991972;28;19985;-50
2023/07/31 07:46:47;;;;;;;;;;;26.50;48.80;;;20.93;54.04;95599.91;4978055;28;19913;-52
2023/07/31 07:49:13;;;;;;;;;;;26.90;47.80;;;21.15;53.51;95608.81;4990343;28;19916;-47
2023/07/31 07:51:39;;;;;;;;;;;27.20;47.20;;;21.20;52.78;95605.91;4991913;28;19914;-49
2023/07/31 07:54:05;;;;;;;;;;;27.50;46.50;;;21.58;51.27;95605.75;4991043;28;19909;-52
2023/07/31 07:56:31;;;;;;;;;;;27.80;46.40;;;21.52;52.59;95609.78;4972603;28;19933;-51
2023/07/31 07:58:56;;;;;;;;;;;28.00;45.40;;;21.92;51.37;95610.00;4985415;28;19943;-50
2023/07/31 08:01:22;;;;;;;;;;;28.20;45.10;;;22.25;50.39;95611.09;4991362;28;19917;-47
2023/07/31 08:03:48;;;;;;;;;;;28.50;44.90;;;22.67;50.93;95622.50;4996174;28;19909;-49
2023/07/31 08:06:15;;;;;;;;;;;28.70;44.90;;;22.84;49.63;95626.88;4994912;28;19924;-51
2023/07/31 08:08:41;;;;;;;;;;;28.80;44.90;;;22.94;48.33;95631.09;4983052;28;19913;-49
2023/07/31 08:11:07;;;;;;;;;;;29.00;44.70;;;22.91;48.22;95616.25;4995629;28;19909;-47
2023/07/31 08:13:32;;;;;;;;;;;29.00;44.20;;;22.80;47.90;95620.56;4994860;28;20423;-47
2023/07/31 08:15:58;;;;;;;;;;;29.10;43.70;;;22.67;48.54;95608.94;4995896;28;19956;-47
2023/07/31 08:18:24;;;;;;;;;;;29.10;42.80;;;22.96;47.52;95602.44;4993547;28;19945;-48
2023/07/31 08:20:50;;;;;;;;;;;29.30;42.50;;;23.21;47.04;95603.19;5005087;23;19922;-45
2023/07/31 08:23:15;;;;;;;;;;;29.40;42.30;;;23.00;46.31;95602.56;4988549;28;20387;-48
2023/07/31 08:25:41;;;;;;;;;;;29.40;42.10;;;22.95;45.73;95595.44;4992510;28;19956;-47
2023/07/31 08:28:07;;;;;;;;;;;29.50;42.00;;;22.64;46.17;95587.91;4982892;28;19909;-46
2023/07/31 08:30:33;;;;;;;;;;;29.50;41.50;;;22.23;47.83;95580.81;4991295;28;19972;-44
2023/07/31 08:33:00;;;;;;;;;;;29.50;40.60;;;21.89;49.07;95575.44;4965165;28;20295;-46
2023/07/31 08:35:28;;;;;;;;;;;29.40;39.90;;;22.12;48.46;95578.50;4973886;28;19949;-43
2023/07/31 08:37:54;;;;;;;;;;;29.20;39.90;;;22.00;49.01;95577.69;4963446;28;19988;-45
2023/07/31 08:40:23;;;;;;;;;;;29.10;39.90;;;21.95;48.66;95570.59;4961348;28;19909;-44
2023/07/31 08:42:53;;;;;;;;;;;29.00;39.80;;;22.02;48.32;95573.53;4974424;28;20008;-44
2023/07/31 08:45:20;;;;;;;;;;;28.80;39.90;;;21.83;48.83;95565.94;4969991;28;19965;-46
2023/07/31 08:47:49;;;;;;;;;;;28.50;40.00;;;21.70;49.81;95573.25;4956082;28;19910;-44
2023/07/31 08:50:19;;;;;;;;;;;28.30;40.10;;;21.54;50.46;95580.44;4975947;28;19910;-45
2023/07/31 08:52:48;;;;;;;;;;;28.00;40.10;;;21.59;51.25;95571.28;4975403;28;20012;-44
2023/07/31 08:55:14;;;;;;;;;;;27.80;40.30;;;21.65;50.06;95565.31;4974861;28;19964;-43
2023/07/31 08:57:43;;;;;;;;;;;27.60;40.60;;;21.29;50.82;95566.00;4975095;28;19913;-44
2023/07/31 09:00:11;;;;;;;;;;;27.50;40.20;;;21.70;50.83;95565.13;4975574;28;19914;-45
2023/07/31 09:03:02;;;;;;;;;;;27.60;40.30;;;21.84;49.91;95562.09;4980787;28;19913;-45
2023/07/31 09:05:31;;;;;;;;;;;27.70;40.40;;;22.39;48.05;95568.13;4975443;28;20341;-47
2023/07/31 09:07:57;;;;;;;;;;;28.10;40.40;;;22.71;47.14;95566.38;4974148;28;19996;-46
2023/07/31 09:10:24;;;;;;;;;;;28.60;39.90;;;23.13;45.30;95557.94;4975212;28;19936;-47
2023/07/31 09:12:52;;;;;;;;;;;29.10;39.50;;;23.33;44.60;95562.38;4975715;28;19910;-46
2023/07/31 09:15:19;;;;;;;;;;;29.40;39.00;;;23.21;45.18;95556.97;4975271;28;19909;-48
2023/07/31 09:17:44;;;;;;;;;;;29.50;38.40;;;23.24;44.90;95569.09;4974532;28;19921;-44
2023/07/31 09:20:19;;;;;;;;;;;29.70;37.80;;;23.42;43.06;95556.00;4974557;28;19910;-46
2023/07/31 09:22:46;;;;;;;;;;;29.90;37.40;;;23.34;44.18;95557.72;4974998;28;19918;-44
2023/07/31 09:25:18;;;;;;;;;;;30.00;37.00;;;23.20;43.77;95557.34;4974374;28;19945;-50
2023/07/31 09:27:55;;;;;;;;;;;30.00;36.40;;;23.66;43.34;95542.28;4989540;28;19916;-48
2023/07/31 09:30:22;;;;;;;;;;;30.10;36.30;;;23.87;41.87;95552.13;4969537;28;20412;-45
2023/07/31 09:32:50;;;;;;;;;;;30.40;36.40;;;23.62;43.19;95551.47;4965465;28;20397;-45
2023/07/31 09:35:42;;;;;;;;;;;30.50;36.80;;;24.01;43.32;95552.50;4966274;28;19910;-47
2023/07/31 09:38:14;;;;;;;;;;;30.70;35.80;;;24.29;41.35;95544.22;4961373;28;19918;-45
2023/07/31 09:40:44;;;;;;;;;;;31.00;35.80;;;24.57;40.86;95538.66;4954810;28;19946;-46
2023/07/31 09:43:13;;;;;;;;;;;31.20;35.40;;;24.84;40.96;95539.63;4955457;28;19910;-44
2023/07/31 09:45:42;;;;;;;;;;;31.50;35.40;;;24.63;41.28;95529.09;4964748;28;19941;-47
2023/07/31 09:48:18;;;;;;;;;;;31.80;34.30;;;24.72;41.19;95541.69;4974013;28;19918;-46
2023/07/31 09:50:47;;;;;;;;;;;32.00;33.70;;;24.86;40.60;95528.38;4974520;28;19933;-45
2023/07/31 09:53:15;;;;;;;;;;;32.10;33.50;;;25.21;40.90;95547.41;4974246;28;19997;-45
2023/07/31 09:55:45;;;;;;;;;;;32.10;33.80;;;25.48;39.80;95547.53;4960673;28;19956;-45
2023/07/31 09:58:12;;;;;;;;;;;32.40;33.90;;;26.09;39.08;95533.03;4955166;28;20029;-44
2023/07/31 10:00:39;;;;;;;;;;;32.70;33.90;;;26.11;38.07;95525.28;4967561;28;20268;-44
2023/07/31 10:03:10;;;;;;;;;;;33.00;33.60;;;26.44;38.44;95526.53;4960422;28;19914;-45
2023/07/31 10:05:42;;;;;;;;;;;33.30;33.10;;;26.37;37.80;95520.97;4973487;28;19910;-45
2023/07/31 10:08:13;;;;;;;;;;;33.50;32.80;;;26.68;38.77;95526.13;4969101;28;19921;-45
2023/07/31 10:10:45;;;;;;;;;;;33.60;32.40;;;26.64;37.04;95517.13;4957661;28;20304;-45
2023/07/31 10:13:13;;;;;;;;;;;33.90;32.10;;;26.74;37.51;95510.22;4973348;28;19909;-44
2023/07/31 10:15:41;;;;;;;;;;;34.10;31.80;;;26.52;37.70;95500.94;4973942;28;19959;-45
2023/07/31 10:18:07;;;;;;;;;;;34.30;31.30;;;26.96;37.37;95505.81;4969559;28;19914;-44
2023/07/31 10:20:35;;;;;;;;;;;34.30;31.30;;;27.28;36.32;95499.97;4974942;28;19913;-44
2023/07/31 10:23:01;;;;;;;;;;;34.60;31.20;;;27.74;36.00;95510.59;4975189;28;19910;-47
2023/07/31 10:25:28;;;;;;;;;;;34.80;31.30;;;27.87;35.17;95499.00;4967394;28;19945;-48
2023/07/31 10:27:55;;;;;;;;;;;35.10;31.00;;;28.12;34.80;95496.47;4964452;28;19913;-51
2023/07/31 10:30:30;;;;;;;;;;;35.30;30.90;;;28.05;34.13;95487.41;4961510;28;19910;-47
2023/07/31 10:32:58;;;;;;;;;;;35.40;30.50;;;28.28;34.63;95474.25;4973866;28;19952;-45
2023/07/31 10:35:24;;;;;;;;;;;35.40;30.60;;;28.09;34.82;95483.53;4968633;28;19918;-46
2023/07/31 10:37:51;;;;;;;;;;;35.50;30.40;;;26.92;35.25;95474.91;4968609;28;19913;-46
2023/07/31 10:40:25;;;;;;;;;;;35.50;29.40;;;27.73;35.39;95468.72;4973762;28;19916;-46
2023/07/31 10:42:57;;;;;;;;;;;35.50;29.60;;;28.38;34.94;95470.81;4972688;28;19916;-47
2023/07/31 10:45:42;;;;;;;;;;;35.70;29.90;;;28.30;33.94;95471.94;4973575;28;19916;-47
2023/07/31 10:48:16;;;;;;;;;;;36.10;29.90;;;27.69;33.40;95463.22;4971981;28;19913;-45
2023/07/31 10:50:56;;;;;;;;;;;36.20;29.40;;;27.86;34.85;95459.13;4974041;28;19910;-48
2023/07/31 10:53:32;;;;;;;;;;;36.20;28.80;;;28.03;34.10;95454.94;4973253;28;19910;-49
2023/07/31 10:56:04;;;;;;;;;;;36.30;28.70;;;27.79;34.45;95450.81;4960120;28;19917;-48
2023/07/31 10:58:32;;;;;;;;;;;36.10;28.40;;;27.93;34.35;95452.91;4960246;28;19914;-46
2023/07/31 11:01:03;;;;;;;;;;;36.00;28.40;;;27.82;34.21;95447.34;4972230;28;19909;-46
2023/07/31 11:03:46;;;;;;;;;;;35.80;28.30;;;27.35;33.76;95448.06;4961402;28;19960;-46
2023/07/31 11:06:14;;;;;;;;;;;35.70;28.20;;;27.18;34.96;95449.47;4971786;28;19917;-48
2023/07/31 11:08:47;;;;;;;;;;;35.50;27.90;;;27.71;34.34;95430.03;4985210;28;20511;-44
2023/07/31 11:11:16;;;;;;;;;;;35.40;28.10;;;27.94;34.39;95424.38;4970934;28;19917;-46
2023/07/31 11:13:49;;;;;;;;;;;35.50;28.30;;;28.25;32.98;95422.22;4972429;28;19910;-47